createdAt,value
2019-04-04T00:02:10.980Z,99196.81
2019-04-04T00:04:44.644Z,99190.70
2019-04-04T00:07:18.383Z,99192.11
2019-04-04T00:09:52.386Z,99211.84
2019-04-04T00:12:26.127Z,99221.06
2019-04-04T00:15:02.454Z,99232.86
2019-04-04T00:17:35.240Z,99243.84
2019-04-04T00:20:09.600Z,99247.65
2019-04-04T00:22:43.303Z,99239.20
2019-04-04T00:25:17.652Z,99244.55
2019-04-04T00:27:51.824Z,99244.34
2019-04-04T00:30:25.946Z,99244.59
2019-04-04T00:32:59.678Z,99254.57
2019-04-04T00:35:50.460Z,99255.69
2019-04-04T00:38:25.027Z,99252.22
2019-04-04T00:40:59.055Z,99244.34
2019-04-04T00:43:33.507Z,99224.99
2019-04-04T00:46:07.832Z,99213.63
2019-04-04T00:48:41.977Z,99195.89
2019-04-04T00:51:15.621Z,99176.67
2019-04-04T00:53:49.971Z,99166.77
2019-04-04T00:56:23.712Z,99167.03
2019-04-04T00:58:57.363Z,99159.83
2019-04-04T01:01:30.999Z,99164.98
2019-04-04T01:04:05.032Z,99164.84
2019-04-04T01:06:39.279Z,99180.61
2019-04-04T01:09:13.700Z,99206.98
2019-04-04T01:11:50.937Z,99220.50
2019-04-04T01:14:23.627Z,99216.64
2019-04-04T01:16:57.250Z,99203.77
2019-04-04T01:19:31.015Z,99209.45
2019-04-04T01:22:04.726Z,99200.66
2019-04-04T01:24:39.116Z,99193.03
2019-04-04T01:27:12.839Z,99204.91
2019-04-04T01:29:46.538Z,99203.77
2019-04-04T01:32:20.727Z,99203.84
2019-04-04T01:34:54.460Z,99187.22
2019-04-04T01:37:28.073Z,99169.28
2019-04-04T01:40:02.240Z,99150.63
2019-04-04T01:42:38.710Z,99138.43
2019-04-04T01:45:13.218Z,99158.05
2019-04-04T01:47:48.084Z,99158.78
2019-04-04T01:50:22.776Z,99148.50
2019-04-04T01:52:58.889Z,99150.25
2019-04-04T01:55:34.966Z,99148.36
2019-04-04T01:58:10.104Z,99146.56
2019-04-04T02:00:46.029Z,99137.03
2019-04-04T02:03:22.464Z,99139.16
2019-04-04T02:05:56.156Z,99147.80
2019-04-04T02:08:31.699Z,99156.47
2019-04-04T02:11:06.208Z,99145.53
2019-04-04T02:13:40.983Z,99137.87
2019-04-04T02:16:16.900Z,99152.91
2019-04-04T02:18:53.835Z,99178.62
2019-04-04T02:21:28.769Z,99198.20
2019-04-04T02:24:02.660Z,99204.30
2019-04-04T02:26:36.737Z,99207.80
2019-04-04T02:29:11.083Z,99194.34
2019-04-04T02:31:53.083Z,99179.08
2019-04-04T02:34:24.334Z,99183.69
2019-04-04T02:36:58.125Z,99180.41
2019-04-04T02:39:32.761Z,99183.09
2019-04-04T02:42:07.416Z,99170.98
2019-04-04T02:44:41.137Z,99178.00
2019-04-04T02:47:17.569Z,99174.45
2019-04-04T02:49:50.254Z,99175.07
2019-04-04T02:52:23.853Z,99169.16
2019-04-04T02:54:58.557Z,99172.66
2019-04-04T02:57:32.410Z,99175.05
2019-04-04T03:00:07.426Z,99189.09
2019-04-04T03:02:41.023Z,99183.53
2019-04-04T03:05:18.776Z,99196.22
2019-04-04T03:07:50.666Z,99201.35
2019-04-04T03:10:24.566Z,99203.41
2019-04-04T03:12:59.487Z,99205.36
2019-04-04T03:15:33.706Z,99195.86
2019-04-04T03:18:07.680Z,99192.84
2019-04-04T03:20:41.699Z,99190.70
2019-04-04T03:23:15.840Z,99186.77
2019-04-04T03:25:50.433Z,99182.77
2019-04-04T03:28:24.464Z,99179.22
2019-04-04T03:31:02.997Z,99182.84
2019-04-04T03:33:33.482Z,99164.09
2019-04-04T03:36:07.155Z,99168.95
2019-04-04T03:38:40.808Z,99170.34
2019-04-04T03:41:14.554Z,99158.65
2019-04-04T03:43:49.093Z,99146.09
2019-04-04T03:46:23.509Z,99145.30
2019-04-04T03:48:57.696Z,99150.82
2019-04-04T03:51:31.371Z,99153.31
2019-04-04T03:54:08.497Z,99149.92
2019-04-04T03:56:42.327Z,99135.52
2019-04-04T03:59:16.051Z,99120.82
2019-04-04T04:01:49.917Z,99114.00
2019-04-04T04:04:26.833Z,99104.11
2019-04-04T04:06:59.010Z,99095.97
2019-04-04T04:09:32.621Z,99113.67
2019-04-04T04:12:10.068Z,99113.31
2019-04-04T04:14:41.907Z,99109.89
2019-04-04T04:17:15.605Z,99110.97
2019-04-04T04:19:49.186Z,99118.59
2019-04-04T04:22:24.346Z,99120.59
2019-04-04T04:25:02.198Z,99117.43
2019-04-04T04:27:47.305Z,99107.14
2019-04-04T04:30:18.259Z,99121.20
2019-04-04T04:33:11.166Z,99114.09
2019-04-04T04:35:46.008Z,99109.41
2019-04-04T04:38:25.230Z,99110.45
2019-04-04T04:40:56.194Z,99104.23
2019-04-04T04:43:33.568Z,99116.80
2019-04-04T04:46:05.339Z,99125.96
2019-04-04T04:48:39.388Z,99130.50
2019-04-04T04:51:13.454Z,99130.33
2019-04-04T04:53:48.188Z,99139.17
2019-04-04T04:56:22.952Z,99146.58
2019-04-04T04:58:56.503Z,99141.39
2019-04-04T05:01:30.124Z,99112.23
2019-04-04T05:04:03.696Z,99112.37
2019-04-04T05:06:37.638Z,99121.08
2019-04-04T05:09:13.664Z,99126.16
2019-04-04T05:11:49.863Z,99135.94
2019-04-04T05:14:21.959Z,99144.05
2019-04-04T05:16:55.587Z,99154.94
2019-04-04T05:19:29.564Z,99160.30
2019-04-04T05:22:03.240Z,99156.39
2019-04-04T05:24:36.848Z,99157.89
2019-04-04T05:27:10.569Z,99148.37
2019-04-04T05:29:44.891Z,99141.22
2019-04-04T05:32:21.709Z,99139.41
2019-04-04T05:34:54.542Z,99137.09
2019-04-04T05:37:28.273Z,99131.56
2019-04-04T05:40:01.926Z,99139.89
2019-04-04T05:42:35.714Z,99144.65
2019-04-04T05:45:14.015Z,99155.58
2019-04-04T05:47:46.258Z,99152.66
2019-04-04T05:50:20.273Z,99141.89
2019-04-04T05:52:54.397Z,99137.95
2019-04-04T05:55:28.606Z,99122.92
2019-04-04T05:58:02.453Z,99112.95
2019-04-04T06:00:36.279Z,99096.70
2019-04-04T06:03:09.948Z,99089.59
2019-04-04T06:05:43.972Z,99088.30
2019-04-04T06:08:17.697Z,99088.09
2019-04-04T06:10:51.454Z,99099.32
2019-04-04T06:13:27.006Z,99107.91
2019-04-04T06:16:02.018Z,99111.81
2019-04-04T06:18:36.536Z,99119.83
2019-04-04T06:21:10.228Z,99124.14
2019-04-04T06:23:43.842Z,99111.47
2019-04-04T06:26:17.420Z,99109.70
2019-04-04T06:28:51.575Z,99125.34
2019-04-04T06:31:26.947Z,99134.76
2019-04-04T06:34:00.511Z,99148.23
2019-04-04T06:36:36.553Z,99163.31
2019-04-04T15:52:45.953Z,99216.71
2019-04-04T15:55:19.634Z,99217.08
2019-04-04T15:57:53.262Z,99213.27
2019-04-04T16:00:27.581Z,99216.49
2019-04-04T16:03:01.484Z,99214.53
2019-04-04T16:05:35.347Z,99218.64
2019-04-04T16:08:08.960Z,99217.94
2019-04-04T16:10:42.814Z,99217.89
2019-04-04T16:13:16.822Z,99221.69
2019-04-04T16:15:51.101Z,99208.57
2019-04-04T16:18:26.795Z,99201.47
2019-04-04T16:21:00.805Z,99191.70
2019-04-04T16:23:34.992Z,99195.29
2019-04-04T16:26:08.628Z,99192.11
2019-04-04T16:28:42.537Z,99183.82
2019-04-04T16:31:24.957Z,99194.18
2019-04-04T16:34:15.448Z,99201.13
2019-04-04T16:36:49.406Z,99202.31
2019-04-04T16:39:23.319Z,99195.63
2019-04-04T16:42:02.385Z,99206.24
2019-04-04T16:44:32.623Z,99217.45
2019-04-04T16:47:06.372Z,99225.04
2019-04-04T16:49:40.328Z,99229.70
2019-04-04T16:52:21.664Z,99237.98
2019-04-04T16:54:58.002Z,99244.62
2019-04-04T16:57:32.017Z,99260.05
2019-04-04T17:00:06.680Z,99272.14
2019-04-04T17:02:40.291Z,99277.02
2019-04-04T17:05:14.511Z,99275.39
2019-04-04T17:07:48.457Z,99283.98
2019-04-04T17:10:22.104Z,99290.27
2019-04-04T17:12:56.979Z,99293.22
2019-04-04T17:15:30.681Z,99289.23
2019-04-04T17:18:04.997Z,99301.59
2019-04-04T17:20:40.783Z,99303.76
2019-04-04T17:23:17.539Z,99312.11
2019-04-04T17:25:51.537Z,99320.08
2019-04-04T17:28:26.154Z,99325.37
2019-04-04T17:31:00.093Z,99320.37
2019-04-04T17:33:34.546Z,99324.39
2019-04-04T17:36:09.674Z,99321.48
2019-04-04T17:38:44.062Z,99323.16
2019-04-04T17:41:18.095Z,99325.91
2019-04-04T17:43:52.079Z,99326.19
2019-04-04T17:46:29.783Z,99326.34
2019-04-04T17:49:04.341Z,99332.82
2019-04-04T17:51:38.888Z,99334.37
2019-04-04T17:54:12.965Z,99326.91
2019-04-04T17:56:56.168Z,99335.18
2019-04-04T17:59:30.530Z,99331.17
2019-04-04T18:02:05.113Z,99335.18
2019-04-04T18:04:48.301Z,99335.18
2019-04-04T18:07:15.345Z,99335.11
2019-04-04T18:09:51.793Z,99336.20
2019-04-04T18:12:25.776Z,99334.47
2019-04-04T18:15:03.274Z,99332.50
2019-04-04T18:17:38.228Z,99333.52
2019-04-04T18:20:13.752Z,99325.52
2019-04-04T18:22:48.082Z,99316.42
2019-04-04T18:25:22.747Z,99325.84
2019-04-04T18:27:58.235Z,99322.62
2019-04-04T18:30:31.974Z,99324.13
2019-04-04T18:33:07.114Z,99323.76
2019-04-04T18:35:41.739Z,99329.47
2019-04-04T18:38:18.352Z,99334.45
2019-04-04T18:40:52.288Z,99337.75
2019-04-04T18:43:26.370Z,99337.03
2019-04-04T18:46:00.414Z,99327.91
2019-04-04T18:48:35.214Z,99319.14
2019-04-04T18:51:08.974Z,99321.22
2019-04-04T18:53:45.856Z,99323.63
2019-04-04T18:56:19.940Z,99321.70
2019-04-04T18:58:55.750Z,99328.53
2019-04-04T19:01:31.204Z,99339.05
2019-04-04T19:04:05.674Z,99332.31
2019-04-04T19:06:39.768Z,99323.70
2019-04-04T19:09:15.578Z,99320.65
2019-04-04T19:11:49.320Z,99329.80
2019-04-04T19:14:23.393Z,99335.42
2019-04-04T19:16:58.109Z,99336.81
2019-04-04T19:19:36.734Z,99330.07
2019-04-04T19:22:10.732Z,99315.85
2019-04-04T19:24:44.530Z,99325.72
2019-04-04T19:27:18.832Z,99326.88
2019-04-04T19:29:53.163Z,99321.27
2019-04-04T19:32:27.051Z,99327.22
2019-04-04T19:35:03.602Z,99318.98
2019-04-04T19:37:37.754Z,99327.42
2019-04-04T19:40:15.899Z,99327.83
2019-04-04T19:42:51.724Z,99330.45
2019-04-04T19:45:27.258Z,99334.55
2019-04-04T19:48:01.024Z,99335.44
2019-04-04T19:50:38.950Z,99335.17
2019-04-04T19:53:11.805Z,99348.08
2019-04-04T19:55:46.198Z,99344.47
2019-04-04T19:58:19.991Z,99353.80
2019-04-04T20:00:56.365Z,99358.36
2019-04-04T20:03:30.362Z,99371.77
2019-04-04T20:06:03.964Z,99379.91
2019-04-04T20:08:37.990Z,99380.25
2019-04-04T20:11:11.746Z,99376.10
2019-04-04T20:13:45.690Z,99378.79
2019-04-04T20:16:19.313Z,99384.00
2019-04-04T20:18:55.611Z,99398.27
2019-04-04T20:21:31.416Z,99404.95
2019-04-04T20:24:05.537Z,99406.99
2019-04-04T20:26:40.005Z,99399.87
2019-04-04T20:29:13.954Z,99405.59
2019-04-04T20:31:47.542Z,99411.22
2019-04-04T20:34:21.464Z,99418.44
2019-04-04T20:36:55.485Z,99417.42
2019-04-04T20:39:29.481Z,99409.47
2019-04-04T20:42:03.423Z,99415.39
2019-04-04T20:44:39.880Z,99416.98
2019-04-04T20:47:14.090Z,99421.11
2019-04-04T20:49:47.861Z,99425.73
2019-04-04T20:52:22.301Z,99421.97
2019-04-04T20:54:55.932Z,99422.53
2019-04-04T20:57:29.822Z,99426.41
2019-04-04T21:00:03.830Z,99435.55
2019-04-04T21:02:37.742Z,99432.20
2019-04-04T21:05:12.313Z,99427.53
2019-04-04T21:07:45.890Z,99425.84
2019-04-04T21:10:20.274Z,99430.47
2019-04-04T21:12:53.822Z,99434.25
2019-04-04T21:15:27.739Z,99430.66
2019-04-04T21:18:01.293Z,99427.16
2019-04-04T21:20:34.888Z,99427.42
2019-04-04T21:23:08.438Z,99426.12
2019-04-04T21:25:42.019Z,99430.66
2019-04-04T21:28:15.609Z,99426.92
2019-04-04T21:30:49.283Z,99427.68
2019-04-04T21:33:22.853Z,99430.42
